createdAt,value
2023-05-24T04:31:33.161Z,54.3960
2023-05-24T04:32:35.000Z,54.3637
2023-05-24T04:33:37.036Z,54.3395
2023-05-24T04:34:39.164Z,54.3200
2023-05-24T04:35:41.114Z,54.2737
2023-05-24T04:36:43.148Z,54.2385
2023-05-24T04:37:45.217Z,54.2268
2023-05-24T04:38:47.278Z,54.3541
2023-05-24T04:39:49.379Z,54.2820
2023-05-24T04:40:51.345Z,54.9359
2023-05-24T04:41:53.407Z,54.7283
2023-05-24T04:42:55.420Z,54.4783
2023-05-24T04:43:57.449Z,54.6405
2023-05-24T04:44:59.514Z,54.1603
2023-05-24T04:46:01.559Z,53.9645
2023-05-24T04:47:03.687Z,53.9190
2023-05-24T04:48:05.696Z,53.7810
2023-05-24T04:49:07.673Z,53.6807
2023-05-24T04:50:09.761Z,53.6137
2023-05-24T04:51:11.781Z,53.5221
2023-05-24T04:52:13.838Z,53.4198
2023-05-24T04:53:15.871Z,53.3958
2023-05-24T04:54:17.914Z,53.2920
2023-05-24T04:55:19.949Z,53.2816
2023-05-24T04:56:21.989Z,53.2483
2023-05-24T04:57:24.035Z,53.1398
2023-05-24T04:58:26.087Z,53.1154
2023-05-24T04:59:28.111Z,53.0642
2023-05-24T05:00:30.174Z,53.1019
2023-05-24T05:01:32.222Z,53.1127
2023-05-24T05:02:34.301Z,53.0398
2023-05-24T05:03:36.412Z,52.9919
2023-05-24T05:04:38.326Z,52.9989
2023-05-24T05:05:40.376Z,52.9844
2023-05-24T05:06:42.442Z,52.9663
2023-05-24T05:07:44.496Z,52.9706
2023-05-24T05:08:46.519Z,53.0378
2023-05-24T05:09:48.588Z,53.0756
2023-05-24T05:10:50.633Z,53.0501
2023-05-24T05:11:52.672Z,53.0493
2023-05-24T05:12:54.706Z,53.0359
2023-05-24T05:13:56.798Z,53.2401
2023-05-24T05:14:58.796Z,54.6041
2023-05-24T05:16:00.882Z,55.1625
2023-05-24T05:17:02.912Z,55.0696
2023-05-24T05:18:04.991Z,55.1347
2023-05-24T05:19:07.007Z,54.9302
2023-05-24T05:20:09.133Z,55.4745
2023-05-24T05:21:11.070Z,54.7814
2023-05-24T05:22:13.114Z,54.5140
2023-05-24T05:23:15.287Z,54.2817
2023-05-24T05:24:17.243Z,54.3423
2023-05-24T05:25:19.277Z,54.3365
2023-05-24T05:26:21.313Z,54.2119
2023-05-24T05:27:23.355Z,54.0089
2023-05-24T05:28:25.398Z,54.0253
2023-05-24T05:29:27.424Z,53.9988
2023-05-24T05:30:29.513Z,54.0059
2023-05-24T05:31:31.538Z,53.9918
2023-05-24T05:32:33.633Z,54.0196
2023-05-24T05:33:35.643Z,54.0418
2023-05-24T05:34:37.671Z,54.0775
2023-05-24T05:35:39.718Z,54.1280
2023-05-24T05:36:41.754Z,54.1490
2023-05-24T05:37:43.852Z,54.2178
2023-05-24T05:38:45.830Z,54.0949
2023-05-24T05:39:47.913Z,54.0478
2023-05-24T05:40:49.949Z,54.0408
2023-05-24T05:41:51.987Z,53.9512
2023-05-24T05:42:54.025Z,53.8964
2023-05-24T05:43:56.347Z,53.7464
2023-05-24T05:44:58.166Z,53.7827
2023-05-24T05:46:00.230Z,53.7650
2023-05-24T05:47:02.254Z,53.8590
2023-05-24T05:48:04.334Z,53.8336
2023-05-24T05:49:06.398Z,53.8972
2023-05-24T05:50:08.406Z,53.7635
2023-05-24T05:51:10.450Z,53.6100
2023-05-24T05:52:12.482Z,53.7795
2023-05-24T05:53:14.523Z,53.7061
2023-05-24T05:54:16.601Z,53.7831
2023-05-24T05:55:18.594Z,53.9839
2023-05-24T05:56:20.647Z,54.1929
2023-05-24T05:57:22.753Z,54.5342
2023-05-24T05:58:24.757Z,54.2512
2023-05-24T05:59:26.804Z,54.2595
2023-05-24T06:00:28.957Z,54.0556
2023-05-24T06:01:30.866Z,54.2318
2023-05-24T06:02:32.970Z,54.3246
2023-05-24T06:03:35.200Z,54.5268
2023-05-24T06:04:37.059Z,54.6255
2023-05-24T06:05:39.063Z,54.4078
2023-05-24T06:06:41.154Z,54.2612
2023-05-24T06:07:43.165Z,54.3503
2023-05-24T06:08:45.282Z,54.5519
2023-05-24T06:09:47.310Z,54.6012
2023-05-24T06:10:52.039Z,55.0103
2023-05-24T06:11:51.389Z,55.4488
2023-05-24T06:12:53.473Z,55.7491
2023-05-24T06:13:55.457Z,55.6476
2023-05-24T06:14:57.561Z,55.3290
2023-05-24T06:15:59.566Z,55.7871
2023-05-24T06:17:01.690Z,55.4793
2023-05-24T06:18:03.819Z,55.4398
2023-05-24T06:19:06.603Z,55.6271
2023-05-24T06:20:07.764Z,55.8605
2023-05-24T06:21:09.807Z,55.4611
2023-05-24T06:22:11.807Z,55.8211
2023-05-24T06:23:14.016Z,56.1283
2023-05-24T06:24:15.901Z,56.1548
2023-05-24T06:25:18.008Z,56.2822
2023-05-24T06:26:20.002Z,56.6662
2023-05-24T06:27:22.151Z,56.9553
2023-05-24T06:28:24.080Z,56.5737
2023-05-24T06:29:26.154Z,56.6434
2023-05-24T06:30:28.385Z,56.6774
2023-05-24T06:31:30.221Z,56.5144
2023-05-24T06:32:32.380Z,56.3591
2023-05-24T06:33:35.766Z,56.1522
2023-05-24T06:34:36.371Z,56.1559
2023-05-24T06:35:38.413Z,56.2420
2023-05-24T06:36:40.465Z,56.2570
2023-05-24T06:37:42.497Z,56.0237
2023-05-24T06:38:44.514Z,55.8916
2023-05-24T06:39:46.626Z,55.9181
2023-05-24T06:40:48.605Z,55.8271
2023-05-24T06:41:50.659Z,55.9896
2023-05-24T06:42:52.736Z,56.0300
2023-05-24T06:43:54.772Z,56.1133
2023-05-24T06:44:56.841Z,56.1323
2023-05-24T06:45:58.884Z,56.4644
2023-05-24T06:47:01.007Z,56.1057
2023-05-24T06:48:05.024Z,55.8285
2023-05-24T06:49:05.054Z,56.0541
2023-05-24T06:50:07.033Z,55.9884
2023-05-24T06:51:09.091Z,55.9595
2023-05-24T06:52:11.130Z,56.0639
2023-05-24T06:53:13.236Z,56.0234
2023-05-24T06:54:15.243Z,55.8139
2023-05-24T06:55:17.254Z,55.5469
2023-05-24T06:56:19.322Z,55.8347
2023-05-24T06:57:21.355Z,56.1552
2023-05-24T06:58:23.392Z,56.0201
2023-05-24T06:59:25.473Z,56.2904
2023-05-24T07:00:27.583Z,56.3390
2023-05-24T07:01:29.671Z,55.9936
2023-05-24T07:02:31.622Z,55.9821
2023-05-24T07:03:33.642Z,55.8604
2023-05-24T07:04:37.532Z,56.0414
2023-05-24T07:05:37.719Z,56.1792
2023-05-24T07:06:39.829Z,55.8937
2023-05-24T07:07:41.817Z,55.8158
2023-05-24T07:08:43.833Z,56.1566
2023-05-24T07:09:45.896Z,56.4781
2023-05-24T07:10:48.119Z,56.8527
2023-05-24T07:11:50.020Z,57.4175
2023-05-24T07:12:52.016Z,57.4011
2023-05-24T07:13:54.076Z,57.4146
2023-05-24T07:14:56.120Z,57.5145
2023-05-24T07:15:58.158Z,56.9153
2023-05-24T07:17:00.340Z,56.7528
2023-05-24T07:18:02.342Z,56.7186
2023-05-24T07:19:04.949Z,56.6559
2023-05-24T07:20:06.359Z,56.4365
2023-05-24T07:21:08.404Z,56.5191
2023-05-24T07:22:10.496Z,56.5083
2023-05-24T07:23:12.552Z,56.3193
2023-05-24T07:24:16.229Z,56.0537
2023-05-24T07:25:16.581Z,56.0147
2023-05-24T07:26:18.644Z,55.7926
2023-05-24T07:27:20.650Z,55.7318
2023-05-24T07:28:22.741Z,55.7367
2023-05-24T07:29:24.981Z,55.9714
2023-05-24T07:30:32.301Z,55.7521
2023-05-24T07:31:28.870Z,55.8380
2023-05-24T07:32:30.990Z,55.6760
2023-05-24T07:33:33.040Z,55.6231
2023-05-24T07:34:35.027Z,55.8752
2023-05-24T07:35:37.087Z,56.0490
2023-05-24T07:36:39.301Z,55.6642
2023-05-24T07:37:41.228Z,55.3886
2023-05-24T07:38:43.328Z,55.4245
2023-05-24T07:39:45.224Z,55.5573
2023-05-24T07:40:47.340Z,55.5558
2023-05-24T07:41:49.330Z,55.4351
2023-05-24T07:42:51.416Z,55.6075
2023-05-24T07:43:53.478Z,55.6497
2023-05-24T07:44:55.549Z,55.7719
2023-05-24T07:45:57.522Z,55.8486
2023-05-24T07:46:59.731Z,55.6026
2023-05-24T07:48:01.861Z,55.7358
2023-05-24T07:49:03.673Z,55.6580
2023-05-24T07:50:06.065Z,55.7207
2023-05-24T07:51:08.059Z,55.2809
2023-05-24T07:52:09.784Z,55.0477
2023-05-24T07:53:11.853Z,54.9594
2023-05-24T07:54:13.894Z,55.0682
2023-05-24T07:55:15.940Z,54.9420
2023-05-24T07:56:17.953Z,55.0228
2023-05-24T07:57:20.035Z,55.1270
2023-05-24T07:58:22.093Z,55.1912
2023-05-24T07:59:24.106Z,55.0550
2023-05-24T08:00:26.259Z,54.8758
2023-05-24T08:01:28.213Z,55.0370
2023-05-24T08:02:30.439Z,55.1560
2023-05-24T08:03:32.379Z,55.1346
2023-05-24T08:04:34.367Z,55.4606
2023-05-24T08:05:36.562Z,55.6826
2023-05-24T08:06:38.496Z,55.5997
2023-05-24T08:07:40.469Z,55.6317
2023-05-24T08:08:42.555Z,55.5876
2023-05-24T08:09:44.651Z,55.6897
2023-05-24T08:10:46.604Z,55.9322
2023-05-24T08:11:48.664Z,55.8400
2023-05-24T08:12:50.667Z,55.9717
2023-05-24T08:13:52.721Z,55.9569
2023-05-24T08:14:55.272Z,56.1893
2023-05-24T08:15:56.879Z,56.1109
2023-05-24T08:16:58.887Z,55.7423
2023-05-24T08:18:00.973Z,55.8193
2023-05-24T08:19:03.017Z,55.9939
2023-05-24T08:20:05.084Z,55.9318
2023-05-24T08:21:07.035Z,56.0568
2023-05-24T08:22:09.239Z,56.2080
2023-05-24T08:23:11.351Z,55.9656
2023-05-24T08:24:13.186Z,56.1264
2023-05-24T08:25:16.974Z,55.9404
2023-05-24T08:26:17.486Z,55.6446
2023-05-24T08:27:19.314Z,55.4435
2023-05-24T08:28:21.484Z,55.3394
2023-05-24T08:29:23.423Z,55.1213
2023-05-24T08:30:25.734Z,54.8531
2023-05-24T08:31:27.564Z,54.7239
2023-05-24T08:32:29.587Z,54.6863
2023-05-24T08:33:31.630Z,54.5669
2023-05-24T08:34:33.747Z,54.4984
2023-05-24T08:35:35.776Z,54.4086
2023-05-24T08:36:37.831Z,54.4561
2023-05-24T08:37:39.955Z,54.7297
2023-05-24T08:38:41.927Z,54.4507
2023-05-24T08:39:44.120Z,54.5283
2023-05-24T08:40:46.076Z,54.0992
2023-05-24T08:42:01.026Z,54.2390
2023-05-24T08:42:50.151Z,54.3359
2023-05-24T08:43:52.185Z,54.2962
2023-05-24T08:44:54.205Z,54.4395
2023-05-24T08:45:56.282Z,54.2975
2023-05-24T08:46:58.369Z,54.1559
2023-05-24T08:48:00.463Z,54.0955
2023-05-24T08:49:02.548Z,53.9337
2023-05-24T08:50:04.499Z,54.0140
2023-05-24T08:51:06.630Z,53.9196
2023-05-24T08:52:08.642Z,53.8749
2023-05-24T08:53:10.573Z,54.2444
2023-05-24T08:54:12.662Z,54.6148
2023-05-24T08:55:14.680Z,54.2538
2023-05-24T08:56:16.780Z,54.3106
2023-05-24T08:57:18.756Z,54.2708
2023-05-24T08:58:20.838Z,54.5859
2023-05-24T08:59:22.856Z,54.5653
2023-05-24T09:00:24.931Z,54.5350
2023-05-24T09:01:28.953Z,54.3107
2023-05-24T09:02:29.007Z,54.6289
2023-05-24T09:03:31.148Z,54.6086
2023-05-24T09:04:33.109Z,54.5184
2023-05-24T09:05:35.168Z,54.4324
2023-05-24T09:06:37.191Z,54.3670
2023-05-24T09:07:39.259Z,54.2653
2023-05-24T09:08:43.628Z,54.0407
2023-05-24T09:09:43.323Z,53.8592
2023-05-24T09:10:54.554Z,53.3927
2023-05-24T09:11:47.423Z,53.4548
2023-05-24T09:12:49.470Z,54.1537
2023-05-24T09:13:51.488Z,54.3351
2023-05-24T09:14:53.621Z,54.1048
2023-05-24T09:15:55.661Z,54.1345
2023-05-24T09:16:57.665Z,54.1650
2023-05-24T09:17:59.702Z,53.9701
2023-05-24T09:19:01.747Z,53.7767
2023-05-24T09:20:03.856Z,53.9111
2023-05-24T09:21:05.866Z,53.9465
2023-05-24T09:22:08.202Z,53.4907
2023-05-24T09:23:10.032Z,53.4919
2023-05-24T09:24:11.995Z,53.2986
2023-05-24T09:25:14.083Z,52.9514
2023-05-24T09:26:16.120Z,53.0808
2023-05-24T09:27:18.122Z,53.3030
2023-05-24T09:28:20.167Z,52.8020
2023-05-24T09:29:22.359Z,52.5729
2023-05-24T09:30:24.279Z,52.7279
2023-05-24T09:31:26.344Z,52.5102
2023-05-24T09:32:28.437Z,52.2999
2023-05-24T09:33:30.393Z,52.2621
2023-05-24T09:34:32.407Z,52.5532
2023-05-24T09:35:34.645Z,52.8323
2023-05-24T09:36:36.545Z,53.0426
2023-05-24T09:37:38.757Z,52.9900
2023-05-24T09:38:40.691Z,52.7528
2023-05-24T09:39:42.701Z,52.6483
2023-05-24T09:40:44.727Z,52.5957
2023-05-24T09:41:46.910Z,52.6296
2023-05-24T09:42:49.834Z,52.7843
2023-05-24T09:43:50.896Z,52.8393
2023-05-24T09:44:53.184Z,52.7638
2023-05-24T09:45:54.960Z,52.8203
2023-05-24T09:46:57.027Z,52.7600
2023-05-24T09:47:59.137Z,52.5927
2023-05-24T09:49:01.081Z,52.5523
2023-05-24T09:50:03.165Z,52.4722
2023-05-24T09:51:05.196Z,52.5199
2023-05-24T09:52:07.305Z,52.4068
2023-05-24T09:53:09.289Z,52.3800
2023-05-24T09:54:11.296Z,52.6068
2023-05-24T09:55:13.366Z,52.8477
2023-05-24T09:56:15.430Z,52.6582
2023-05-24T09:57:17.427Z,52.6497
2023-05-24T09:58:19.484Z,52.5964
2023-05-24T09:59:21.553Z,52.6107
2023-05-24T10:00:23.658Z,52.5639
2023-05-24T10:01:25.688Z,52.7444
2023-05-24T10:02:31.369Z,52.7162
2023-05-24T10:03:29.864Z,52.6493
2023-05-24T10:04:31.861Z,52.6930
2023-05-24T10:05:33.938Z,52.5777
2023-05-24T10:06:35.871Z,52.5245
2023-05-24T10:07:37.903Z,52.4576
2023-05-24T10:08:40.046Z,52.2111
2023-05-24T10:09:42.022Z,52.0984
2023-05-24T10:10:44.456Z,52.2923
2023-05-24T10:11:46.275Z,52.3288
2023-05-24T10:12:48.322Z,52.4572
2023-05-24T10:13:50.214Z,52.6717
2023-05-24T10:14:52.330Z,52.7015
2023-05-24T10:15:54.407Z,52.5457
2023-05-24T10:16:56.389Z,52.4070
2023-05-24T10:17:58.583Z,52.3946
2023-05-24T10:19:00.447Z,52.3283
2023-05-24T10:20:02.556Z,52.1496
2023-05-24T10:21:04.762Z,51.8601
2023-05-24T10:22:06.592Z,51.8029
2023-05-24T10:23:08.628Z,51.6716
2023-05-24T10:24:10.733Z,51.6666
2023-05-24T10:25:12.835Z,51.5039
2023-05-24T10:26:14.833Z,51.3805
2023-05-24T10:27:16.967Z,51.3205
2023-05-24T10:28:18.923Z,51.5419
2023-05-24T10:29:20.938Z,51.6016
2023-05-24T10:30:23.005Z,51.6141
2023-05-24T10:31:25.127Z,52.1614
2023-05-24T10:32:27.203Z,51.5426
2023-05-24T10:33:29.166Z,51.2142
2023-05-24T10:34:31.232Z,51.3269
2023-05-24T10:35:33.246Z,51.1992
2023-05-24T10:36:35.308Z,51.0474
2023-05-24T10:37:38.010Z,50.9952
2023-05-24T10:38:39.434Z,51.6157
2023-05-24T10:39:41.475Z,51.1942
2023-05-24T10:40:43.503Z,51.6596
2023-05-24T10:41:45.608Z,51.6872
2023-05-24T10:42:47.685Z,51.4147
2023-05-24T10:44:07.301Z,51.4575
2023-05-24T10:44:51.743Z,51.5174
2023-05-24T10:45:53.838Z,51.2509
2023-05-24T10:46:55.876Z,51.2636
2023-05-24T10:47:57.907Z,50.9522
2023-05-24T10:48:59.931Z,50.1161
2023-05-24T10:50:02.008Z,50.0611
2023-05-24T10:51:04.210Z,50.4555
2023-05-24T10:52:06.062Z,50.3528
2023-05-24T10:53:08.119Z,50.6202
2023-05-24T10:54:10.191Z,50.0137
2023-05-24T10:55:12.241Z,50.9479
2023-05-24T10:56:14.290Z,50.3327
2023-05-24T10:57:16.350Z,50.4346
2023-05-24T10:58:18.372Z,51.0623
2023-05-24T10:59:20.416Z,51.0940
2023-05-24T11:00:33.683Z,50.3536
2023-05-24T11:01:24.593Z,50.8763
2023-05-24T11:02:26.650Z,50.0438
2023-05-24T11:03:28.923Z,49.7842
2023-05-24T11:04:30.700Z,50.0285
2023-05-24T11:05:32.751Z,50.6491
2023-05-24T11:06:34.811Z,50.9685
2023-05-24T11:07:36.854Z,50.4717
2023-05-24T11:08:38.921Z,50.6545
2023-05-24T11:09:40.944Z,50.2998
2023-05-24T11:10:43.380Z,50.1274
2023-05-24T11:11:45.023Z,49.9659
2023-05-24T11:12:47.125Z,51.3096
2023-05-24T11:13:49.153Z,50.8523
2023-05-24T11:14:51.231Z,50.3273
2023-05-24T11:15:53.281Z,50.2958
2023-05-24T11:16:55.385Z,50.0689
2023-05-24T11:17:57.522Z,50.1114
2023-05-24T11:18:59.408Z,50.1504
2023-05-24T11:20:01.511Z,49.9324
2023-05-24T11:21:04.097Z,49.6678
2023-05-24T11:22:05.561Z,49.5320
2023-05-24T11:23:07.593Z,49.6502
2023-05-24T11:24:09.768Z,49.5993
2023-05-24T11:25:11.692Z,49.6618
2023-05-24T11:26:13.775Z,49.6985
2023-05-24T11:27:15.810Z,49.9251
2023-05-24T11:28:17.900Z,50.0745
2023-05-24T11:29:19.911Z,50.0201
2023-05-24T11:30:21.935Z,50.1688
2023-05-24T11:31:24.035Z,50.1375
2023-05-24T11:32:26.151Z,49.9932
2023-05-24T11:33:28.097Z,50.1232
2023-05-24T11:34:30.116Z,50.1960
2023-05-24T11:35:32.197Z,50.2955
2023-05-24T11:36:34.235Z,50.3534
2023-05-24T11:37:46.135Z,50.2959
2023-05-24T11:38:38.318Z,50.3781
2023-05-24T11:39:40.399Z,50.4298
2023-05-24T11:40:42.675Z,50.4855
2023-05-24T11:41:44.513Z,50.7201
2023-05-24T11:42:46.548Z,50.7314
2023-05-24T11:43:48.603Z,50.6826
2023-05-24T11:44:51.017Z,50.5980
2023-05-24T11:45:52.802Z,50.7461
2023-05-24T11:46:54.781Z,50.6015
2023-05-24T11:47:56.854Z,50.7662
2023-05-24T11:48:58.804Z,50.9419
2023-05-24T11:50:00.847Z,51.0945
2023-05-24T11:51:02.895Z,51.2244
2023-05-24T11:52:04.966Z,51.6338
2023-05-24T11:53:07.027Z,51.7045
2023-05-24T11:54:09.052Z,51.3002
2023-05-24T11:55:11.115Z,51.4495
2023-05-24T11:56:13.136Z,51.1885
2023-05-24T11:57:15.164Z,51.2434
2023-05-24T11:58:17.253Z,51.0792
2023-05-24T11:59:19.279Z,51.2855
2023-05-24T12:00:21.526Z,51.4517
2023-05-24T12:01:23.584Z,51.5253
2023-05-24T12:02:25.443Z,51.4606
2023-05-24T12:03:27.618Z,51.4161
2023-05-24T12:04:29.742Z,51.4042
2023-05-24T12:05:31.558Z,51.4159
2023-05-24T12:06:33.597Z,51.6404
2023-05-24T12:07:35.690Z,52.0185
2023-05-24T12:08:37.678Z,51.9986
2023-05-24T12:09:39.758Z,51.7354
2023-05-24T12:10:41.991Z,51.5691
2023-05-24T12:11:43.870Z,51.5707
2023-05-24T12:12:46.335Z,51.5879
2023-05-24T12:13:47.917Z,51.3653
2023-05-24T12:14:49.932Z,51.3821
2023-05-24T12:15:54.897Z,51.4873
2023-05-24T12:16:54.043Z,51.3551
2023-05-24T12:17:56.719Z,51.4965
2023-05-24T12:19:05.348Z,51.8302
2023-05-24T12:20:00.315Z,51.4453
2023-05-24T12:21:02.237Z,51.3837
2023-05-24T12:22:04.284Z,51.3339
2023-05-24T12:23:06.317Z,50.8299
2023-05-24T12:24:08.418Z,50.5048
2023-05-24T12:25:10.465Z,50.5902
2023-05-24T12:26:12.448Z,50.6728
2023-05-24T12:27:14.529Z,50.6825
2023-05-24T12:28:16.554Z,50.5303
2023-05-24T12:29:18.805Z,50.5674
2023-05-24T12:30:20.642Z,50.7634
2023-05-24T12:31:22.697Z,50.8732
2023-05-24T12:32:24.791Z,50.8360
2023-05-24T12:33:26.781Z,50.7407
2023-05-24T12:34:28.847Z,50.9181
2023-05-24T12:35:30.884Z,50.8778
2023-05-24T12:36:32.941Z,51.1478
2023-05-24T12:37:34.950Z,51.2004
2023-05-24T12:38:37.009Z,51.2025
2023-05-24T12:39:39.141Z,51.3840
2023-05-24T12:40:41.354Z,51.6167
2023-05-24T12:41:43.239Z,51.6068
2023-05-24T12:42:45.335Z,51.7874
2023-05-24T12:43:47.314Z,52.0515
2023-05-24T12:44:49.377Z,51.8079
2023-05-24T12:45:53.604Z,51.7036
2023-05-24T12:46:53.539Z,52.1368
2023-05-24T12:47:55.526Z,52.2481
2023-05-24T12:48:57.545Z,52.3419
2023-05-24T12:49:59.732Z,52.2612
2023-05-24T12:51:01.697Z,51.9973
2023-05-24T12:52:03.693Z,52.0756
2023-05-24T12:53:05.745Z,51.9913
2023-05-24T12:54:07.822Z,51.9578
2023-05-24T12:55:09.985Z,51.7547
2023-05-24T12:56:11.949Z,51.8030
2023-05-24T12:57:13.981Z,52.0141
2023-05-24T12:58:15.986Z,52.0737
2023-05-24T12:59:18.062Z,52.0971
2023-05-24T13:00:20.055Z,52.3778
2023-05-24T13:01:22.366Z,52.2877
2023-05-24T13:02:24.176Z,52.0433
2023-05-24T13:03:26.189Z,52.0577
2023-05-24T13:04:28.264Z,51.8111
2023-05-24T13:05:30.403Z,51.9676
2023-05-24T13:06:32.334Z,51.8459
2023-05-24T13:07:34.454Z,51.6693
2023-05-24T13:08:38.116Z,51.7911
2023-05-24T13:09:38.506Z,51.9244
2023-05-24T13:10:40.654Z,51.7520
2023-05-24T13:11:42.592Z,51.6180
2023-05-24T13:12:44.619Z,51.7512
2023-05-24T13:13:47.133Z,51.9744
2023-05-24T13:14:50.679Z,52.1601
2023-05-24T13:15:50.759Z,52.1649
2023-05-24T13:16:53.073Z,51.7639
2023-05-24T13:17:54.998Z,51.3651
2023-05-24T13:18:56.924Z,51.5024
2023-05-24T13:20:01.726Z,51.3043
2023-05-24T13:21:00.993Z,50.8778
2023-05-24T13:22:03.062Z,51.2034
2023-05-24T13:23:05.111Z,51.2339
2023-05-24T13:24:07.102Z,50.8075
2023-05-24T13:25:09.157Z,50.7934
2023-05-24T13:26:11.239Z,50.6585
2023-05-24T13:27:13.289Z,50.6252
2023-05-24T13:28:15.324Z,50.7384
2023-05-24T13:29:34.181Z,50.7523
2023-05-24T13:30:19.418Z,50.9440
2023-05-24T13:31:21.488Z,50.8178
2023-05-24T13:32:23.574Z,50.9074
2023-05-24T13:33:25.530Z,50.6347
2023-05-24T13:34:27.582Z,50.5088
2023-05-24T13:35:29.620Z,50.5384
2023-05-24T13:36:31.672Z,50.3894
2023-05-24T13:37:33.754Z,50.6040
2023-05-24T13:38:35.769Z,50.4771
2023-05-24T13:39:37.835Z,50.1580
2023-05-24T13:40:41.777Z,50.3903
2023-05-24T13:41:42.174Z,50.7703
2023-05-24T13:42:44.017Z,51.0884
2023-05-24T13:43:45.985Z,51.4101
2023-05-24T13:44:48.032Z,51.1905
2023-05-24T13:45:50.070Z,50.8282
2023-05-24T13:46:52.165Z,51.0239
2023-05-24T13:47:54.216Z,50.8204
2023-05-24T13:48:56.247Z,51.2794
2023-05-24T13:49:58.241Z,50.8633
2023-05-24T13:51:00.301Z,50.5410
2023-05-24T13:52:02.389Z,50.6876
2023-05-24T13:53:04.414Z,50.9878
2023-05-24T13:54:06.437Z,51.0351
2023-05-24T13:55:08.530Z,50.8863
2023-05-24T13:56:10.516Z,51.1406
2023-05-24T13:57:12.652Z,50.9793
2023-05-24T13:58:14.602Z,51.1843
2023-05-24T13:59:16.735Z,51.1578
2023-05-24T14:00:18.737Z,50.9356
2023-05-24T14:01:20.932Z,50.7428
2023-05-24T14:02:22.848Z,50.6159
2023-05-24T14:03:24.835Z,50.5651
2023-05-24T14:04:26.884Z,50.3568
2023-05-24T14:05:28.969Z,50.2773
2023-05-24T14:06:30.987Z,50.2748
2023-05-24T14:07:33.087Z,50.5590
2023-05-24T14:08:35.097Z,50.7666
2023-05-24T14:09:37.217Z,50.7266
2023-05-24T14:10:39.220Z,50.5408
2023-05-24T14:11:41.348Z,50.9851
2023-05-24T14:12:43.287Z,51.2658
2023-05-24T14:15:49.520Z,50.7144
2023-05-24T14:16:51.453Z,50.7504
2023-05-24T14:17:53.605Z,50.8831
2023-05-24T14:18:55.553Z,51.0328
2023-05-24T14:19:57.750Z,51.1083
2023-05-24T14:20:59.655Z,51.0073
2023-05-24T14:22:01.731Z,51.2350
2023-05-24T14:23:03.932Z,51.2788
2023-05-24T14:24:05.809Z,51.2004
2023-05-24T14:25:07.825Z,51.2071
2023-05-24T14:26:09.935Z,51.0742
2023-05-24T14:27:11.907Z,51.3151
2023-05-24T14:28:14.016Z,51.4335
2023-05-24T14:29:16.084Z,51.5063
2023-05-24T14:30:18.125Z,51.8311
2023-05-24T14:31:20.139Z,51.8729
2023-05-24T14:32:22.386Z,51.7237
2023-05-24T14:33:24.180Z,51.5117
2023-05-24T14:34:26.280Z,51.5148
2023-05-24T14:35:28.313Z,51.6900
2023-05-24T14:36:30.407Z,51.8543
2023-05-24T14:37:32.457Z,51.5728
2023-05-24T14:38:34.418Z,51.6585
2023-05-24T14:39:36.477Z,51.4966
2023-05-24T14:40:39.051Z,51.7186
2023-05-24T14:41:40.585Z,51.7080
2023-05-24T14:42:42.605Z,51.5344
2023-05-24T14:43:44.663Z,51.6327
2023-05-24T14:44:46.716Z,51.6531
2023-05-24T14:45:49.094Z,51.3973
2023-05-24T14:46:52.007Z,51.7480
2023-05-24T14:47:52.909Z,51.6230
2023-05-24T14:48:54.919Z,52.2135
2023-05-24T14:49:56.923Z,52.4332
2023-05-24T14:50:58.993Z,52.1707
2023-05-24T14:52:01.089Z,51.8915
2023-05-24T14:53:03.093Z,51.8429
2023-05-24T14:54:05.180Z,52.1804
2023-05-24T14:55:07.215Z,52.2659
2023-05-24T14:56:09.314Z,52.0814
2023-05-24T14:57:11.313Z,51.8920
2023-05-24T14:58:13.346Z,51.6903
2023-05-24T14:59:15.369Z,51.7896
2023-05-24T15:00:19.784Z,51.7261
2023-05-24T15:01:19.526Z,51.7410
2023-05-24T15:02:21.673Z,51.2597
2023-05-24T15:03:23.717Z,51.0751
2023-05-24T15:04:25.617Z,51.2108
2023-05-24T15:05:27.660Z,51.4848
2023-05-24T15:06:29.729Z,51.4332
2023-05-24T15:07:31.797Z,51.4665
2023-05-24T15:08:33.873Z,52.0363
2023-05-24T15:09:35.826Z,52.2437
2023-05-24T15:10:37.939Z,52.0712
2023-05-24T15:11:40.035Z,51.8027
2023-05-24T15:12:42.057Z,51.7502
2023-05-24T15:13:44.056Z,51.5257
2023-05-24T15:14:46.089Z,51.7654
2023-05-24T15:15:48.130Z,52.0303
2023-05-24T15:16:50.232Z,52.3698
2023-05-24T15:17:52.290Z,51.9900
2023-05-24T15:18:54.283Z,51.9145
2023-05-24T15:19:56.337Z,51.9985
2023-05-24T15:20:58.422Z,51.8489
2023-05-24T15:22:00.534Z,52.0710
2023-05-24T15:23:02.439Z,52.4042
2023-05-24T15:24:04.517Z,52.6206
2023-05-24T15:25:06.570Z,52.4703
2023-05-24T15:26:08.636Z,52.4501
2023-05-24T15:27:10.741Z,52.6657
2023-05-24T15:28:12.806Z,52.7200
2023-05-24T15:29:14.736Z,52.6024
2023-05-24T15:30:16.827Z,52.7326
2023-05-24T15:31:18.867Z,52.9464
2023-05-24T15:32:20.864Z,52.9984
2023-05-24T15:33:23.005Z,53.1788
2023-05-24T15:34:24.976Z,52.7308
2023-05-24T15:35:27.020Z,52.3804
2023-05-24T15:36:29.087Z,52.2518
2023-05-24T15:37:31.151Z,51.8457
2023-05-24T15:38:33.164Z,51.7641
2023-05-24T15:39:35.204Z,52.1212
2023-05-24T15:40:37.247Z,52.0629
2023-05-24T15:41:39.336Z,52.0543
2023-05-24T15:42:41.469Z,52.0642
2023-05-24T15:43:43.426Z,51.9101
2023-05-24T15:44:45.440Z,51.9244
2023-05-24T15:45:47.493Z,51.8752
2023-05-24T15:46:49.606Z,51.8986
2023-05-24T15:47:51.682Z,51.9618
2023-05-24T15:48:53.657Z,51.9510
2023-05-24T15:49:55.754Z,51.4677
2023-05-24T15:51:25.693Z,51.4667
2023-05-24T15:52:04.329Z,51.5491
2023-05-24T15:53:02.069Z,51.6166
2023-05-24T15:54:03.921Z,51.8485
2023-05-24T15:55:05.944Z,52.0577
2023-05-24T15:56:08.064Z,52.0909
2023-05-24T15:57:10.079Z,52.3807
2023-05-24T15:58:12.155Z,52.4260
2023-05-24T15:59:14.191Z,52.1775
2023-05-24T16:00:16.224Z,52.3115
2023-05-24T16:01:18.339Z,52.0209
2023-05-24T16:02:21.616Z,51.7361
2023-05-24T16:03:22.505Z,51.9386
2023-05-24T16:04:24.395Z,51.9362
2023-05-24T16:05:26.567Z,52.0682
2023-05-24T16:06:28.498Z,52.0706
2023-05-24T16:07:30.523Z,52.0430
2023-05-24T16:08:32.601Z,51.7897
2023-05-24T16:09:34.641Z,51.8156
2023-05-24T16:10:36.663Z,51.6867
2023-05-24T16:11:38.710Z,51.6404
2023-05-24T16:12:40.888Z,51.5982
2023-05-24T16:13:42.825Z,51.4335
2023-05-24T16:14:44.910Z,51.5369
2023-05-24T16:15:47.005Z,51.6914
2023-05-24T16:16:49.078Z,51.5963
2023-05-24T16:17:51.148Z,51.7215
2023-05-24T16:18:53.099Z,52.0937
2023-05-24T16:19:55.311Z,52.1749
2023-05-24T16:20:57.311Z,52.2664
2023-05-24T16:21:59.237Z,52.5067
2023-05-24T16:23:01.266Z,52.0720
2023-05-24T16:24:03.336Z,52.5578
2023-05-24T16:25:05.357Z,52.4210
2023-05-24T16:26:07.406Z,53.7116
2023-05-24T16:27:09.526Z,52.5713
2023-05-24T16:28:11.579Z,51.8118
2023-05-24T16:29:13.579Z,51.6065
2023-05-24T16:30:15.731Z,51.5612
2023-05-24T16:31:17.755Z,51.4805
2023-05-24T16:32:19.827Z,51.7027
2023-05-24T16:33:21.763Z,51.3614
2023-05-24T16:34:23.820Z,51.1968
2023-05-24T16:35:25.915Z,51.1211
2023-05-24T16:36:27.865Z,51.2539
2023-05-24T16:37:29.947Z,51.1840
2023-05-24T16:38:33.220Z,51.1293
2023-05-24T16:39:34.105Z,50.9219
2023-05-24T16:40:36.106Z,50.9911
2023-05-24T16:41:38.378Z,50.9189
2023-05-24T16:42:40.182Z,50.6693
2023-05-24T16:43:42.419Z,50.7046
2023-05-24T16:44:44.572Z,50.5886
2023-05-24T16:45:46.462Z,50.5948
2023-05-24T16:46:48.454Z,50.8407
2023-05-24T16:47:50.544Z,50.7864
2023-05-24T16:48:52.576Z,50.6552
2023-05-24T16:49:54.623Z,50.6782
2023-05-24T16:50:56.752Z,50.8163
2023-05-24T16:51:58.832Z,50.5663
2023-05-24T16:53:00.809Z,50.5350
2023-05-24T16:54:02.793Z,51.0162
2023-05-24T16:55:04.900Z,50.5452
2023-05-24T16:56:07.022Z,50.5241
2023-05-24T16:57:09.243Z,50.7096
2023-05-24T16:58:11.002Z,50.5235
2023-05-24T16:59:13.273Z,51.1060
2023-05-24T17:00:15.106Z,50.5518
2023-05-24T17:01:17.191Z,50.1494
2023-05-24T17:02:19.189Z,50.5173
2023-05-24T17:03:21.330Z,50.1071